sensor_id;sensor_type;location;lat;lon;timestamp;P1;durP1;ratioP1;P2;durP2;ratioP2
6467;SDS011;3267;48.794;9.928;2023-04-29T04:02:43;4.63;;;1.48;;
6467;SDS011;3267;48.794;9.928;2023-04-29T04:05:09;3.08;;;1.23;;
6467;SDS011;3267;48.794;9.928;2023-04-29T04:07:35;2.10;;;1.50;;
6467;SDS011;3267;48.794;9.928;2023-04-29T04:10:00;2.60;;;1.27;;
6467;SDS011;3267;48.794;9.928;2023-04-29T04:12:26;1.52;;;1.42;;
6467;SDS011;3267;48.794;9.928;2023-04-29T04:14:52;4.30;;;1.70;;
6467;SDS011;3267;48.794;9.928;2023-04-29T04:17:19;1.65;;;1.45;;
6467;SDS011;3267;48.794;9.928;2023-04-29T04:19:44;2.72;;;1.83;;
6467;SDS011;3267;48.794;9.928;2023-04-29T04:22:10;1.70;;;1.60;;
6467;SDS011;3267;48.794;9.928;2023-04-29T04:24:36;1.70;;;1.60;;
6467;SDS011;3267;48.794;9.928;2023-04-29T04:27:01;1.92;;;1.65;;
6467;SDS011;3267;48.794;9.928;2023-04-29T04:29:27;2.22;;;1.60;;
6467;SDS011;3267;48.794;9.928;2023-04-29T04:31:53;1.45;;;1.35;;
6467;SDS011;3267;48.794;9.928;2023-04-29T04:34:18;1.50;;;1.40;;
6467;SDS011;3267;48.794;9.928;2023-04-29T04:36:44;1.88;;;1.77;;
6467;SDS011;3267;48.794;9.928;2023-04-29T04:39:10;1.77;;;1.40;;
6467;SDS011;3267;48.794;9.928;2023-04-29T04:41:36;4.18;;;1.55;;
6467;SDS011;3267;48.794;9.928;2023-04-29T04:44:02;1.30;;;1.20;;
6467;SDS011;3267;48.794;9.928;2023-04-29T04:46:28;1.50;;;1.40;;
6467;SDS011;3267;48.794;9.928;2023-04-29T04:48:54;3.60;;;1.50;;
6467;SDS011;3267;48.794;9.928;2023-04-29T04:51:20;1.70;;;1.55;;
6467;SDS011;3267;48.794;9.928;2023-04-29T04:53:45;2.08;;;1.95;;
6467;SDS011;3267;48.794;9.928;2023-04-29T04:56:11;1.92;;;1.83;;
6467;SDS011;3267;48.794;9.928;2023-04-29T04:58:37;4.30;;;2.33;;
6467;SDS011;3267;48.794;9.928;2023-04-29T05:01:02;2.42;;;2.30;;
6467;SDS011;3267;48.794;9.928;2023-04-29T05:03:28;2.00;;;1.90;;
6467;SDS011;3267;48.794;9.928;2023-04-29T05:08:20;2.30;;;2.10;;
6467;SDS011;3267;48.794;9.928;2023-04-29T05:10:46;3.60;;;2.03;;
6467;SDS011;3267;48.794;9.928;2023-04-29T05:13:12;2.35;;;1.90;;
6467;SDS011;3267;48.794;9.928;2023-04-29T05:15:53;2.50;;;2.30;;
6467;SDS011;3267;48.794;9.928;2023-04-29T05:18:18;1.80;;;1.70;;
6467;SDS011;3267;48.794;9.928;2023-04-29T05:20:44;1.50;;;1.40;;
6467;SDS011;3267;48.794;9.928;2023-04-29T05:23:11;1.50;;;1.40;;
6467;SDS011;3267;48.794;9.928;2023-04-29T05:25:37;1.58;;;1.48;;
6467;SDS011;3267;48.794;9.928;2023-04-29T05:28:03;1.90;;;1.80;;
6467;SDS011;3267;48.794;9.928;2023-04-29T05:30:28;1.80;;;1.70;;
6467;SDS011;3267;48.794;9.928;2023-04-29T05:32:54;6.25;;;1.70;;
6467;SDS011;3267;48.794;9.928;2023-04-29T05:35:25;1.70;;;1.60;;
6467;SDS011;3267;48.794;9.928;2023-04-29T05:37:52;1.40;;;1.40;;
6467;SDS011;3267;48.794;9.928;2023-04-29T05:40:18;1.73;;;1.63;;
6467;SDS011;3267;48.794;9.928;2023-04-29T05:42:43;1.55;;;1.45;;
6467;SDS011;3267;48.794;9.928;2023-04-29T05:45:09;1.60;;;1.50;;
6467;SDS011;3267;48.794;9.928;2023-04-29T05:47:36;1.55;;;1.50;;
6467;SDS011;3267;48.794;9.928;2023-04-29T05:50:02;2.33;;;1.85;;
6467;SDS011;3267;48.794;9.928;2023-04-29T05:52:27;2.17;;;1.40;;
6467;SDS011;3267;48.794;9.928;2023-04-29T05:54:53;1.65;;;1.63;;
6467;SDS011;3267;48.794;9.928;2023-04-29T05:57:19;1.70;;;1.60;;
6467;SDS011;3267;48.794;9.928;2023-04-29T05:59:44;2.85;;;2.10;;
6467;SDS011;3267;48.794;9.928;2023-04-29T06:02:10;2.08;;;1.98;;
6467;SDS011;3267;48.794;9.928;2023-04-29T06:04:36;1.77;;;1.67;;
6467;SDS011;3267;48.794;9.928;2023-04-29T06:07:02;1.75;;;1.65;;
6467;SDS011;3267;48.794;9.928;2023-04-29T06:09:29;3.90;;;1.98;;
6467;SDS011;3267;48.794;9.928;2023-04-29T06:11:54;3.08;;;2.00;;
6467;SDS011;3267;48.794;9.928;2023-04-29T06:14:20;1.90;;;1.80;;
6467;SDS011;3267;48.794;9.928;2023-04-29T06:16:46;2.38;;;2.20;;
6467;SDS011;3267;48.794;9.928;2023-04-29T06:19:13;3.88;;;2.00;;
6467;SDS011;3267;48.794;9.928;2023-04-29T06:21:39;3.13;;;2.75;;
6467;SDS011;3267;48.794;9.928;2023-04-29T06:24:07;4.35;;;2.42;;
6467;SDS011;3267;48.794;9.928;2023-04-29T06:26:33;2.58;;;2.38;;
6467;SDS011;3267;48.794;9.928;2023-04-29T06:29:08;4.82;;;2.40;;
6467;SDS011;3267;48.794;9.928;2023-04-29T06:31:34;3.85;;;2.10;;
6467;SDS011;3267;48.794;9.928;2023-04-29T06:34:01;2.55;;;2.40;;
6467;SDS011;3267;48.794;9.928;2023-04-29T06:36:26;2.10;;;2.00;;
6467;SDS011;3267;48.794;9.928;2023-04-29T06:38:52;2.30;;;2.10;;
6467;SDS011;3267;48.794;9.928;2023-04-29T06:41:18;2.35;;;2.17;;
6467;SDS011;3267;48.794;9.928;2023-04-29T06:43:43;2.10;;;1.90;;
6467;SDS011;3267;48.794;9.928;2023-04-29T06:46:10;1.92;;;1.83;;
6467;SDS011;3267;48.794;9.928;2023-04-29T06:48:37;2.22;;;2.13;;
6467;SDS011;3267;48.794;9.928;2023-04-29T06:51:02;1.98;;;1.85;;
6467;SDS011;3267;48.794;9.928;2023-04-29T06:53:29;2.22;;;2.08;;
6467;SDS011;3267;48.794;9.928;2023-04-29T06:55:55;7.00;;;2.00;;
6467;SDS011;3267;48.794;9.928;2023-04-29T06:58:21;2.15;;;2.00;;
6467;SDS011;3267;48.794;9.928;2023-04-29T07:00:47;2.00;;;1.90;;
6467;SDS011;3267;48.794;9.928;2023-04-29T07:03:14;2.28;;;1.85;;
6467;SDS011;3267;48.794;9.928;2023-04-29T07:05:44;2.47;;;2.28;;
6467;SDS011;3267;48.794;9.928;2023-04-29T07:08:11;2.28;;;2.08;;
6467;SDS011;3267;48.794;9.928;2023-04-29T07:10:38;2.08;;;1.90;;
6467;SDS011;3267;48.794;9.928;2023-04-29T07:13:03;2.70;;;1.95;;
6467;SDS011;3267;48.794;9.928;2023-04-29T07:15:32;1.90;;;1.80;;
6467;SDS011;3267;48.794;9.928;2023-04-29T07:17:58;2.00;;;1.90;;
6467;SDS011;3267;48.794;9.928;2023-04-29T07:20:24;1.90;;;1.80;;
6467;SDS011;3267;48.794;9.928;2023-04-29T07:22:51;2.40;;;1.77;;
6467;SDS011;3267;48.794;9.928;2023-04-29T07:25:17;2.00;;;1.90;;
6467;SDS011;3267;48.794;9.928;2023-04-29T07:27:42;2.28;;;1.90;;
6467;SDS011;3267;48.794;9.928;2023-04-29T07:30:08;3.67;;;2.30;;
6467;SDS011;3267;48.794;9.928;2023-04-29T07:32:34;2.90;;;2.30;;
6467;SDS011;3267;48.794;9.928;2023-04-29T07:35:01;3.15;;;2.70;;
6467;SDS011;3267;48.794;9.928;2023-04-29T07:37:26;2.67;;;2.47;;
6467;SDS011;3267;48.794;9.928;2023-04-29T07:39:52;3.10;;;2.80;;
6467;SDS011;3267;48.794;9.928;2023-04-29T07:42:18;3.30;;;2.85;;
6467;SDS011;3267;48.794;9.928;2023-04-29T07:44:44;2.95;;;2.70;;
6467;SDS011;3267;48.794;9.928;2023-04-29T07:47:10;2.50;;;2.30;;
6467;SDS011;3267;48.794;9.928;2023-04-29T07:49:36;2.83;;;2.63;;
6467;SDS011;3267;48.794;9.928;2023-04-29T07:52:03;3.60;;;2.40;;
6467;SDS011;3267;48.794;9.928;2023-04-29T07:54:29;3.05;;;2.17;;
6467;SDS011;3267;48.794;9.928;2023-04-29T07:56:56;4.68;;;2.25;;
6467;SDS011;3267;48.794;9.928;2023-04-29T07:59:22;2.40;;;2.20;;
6467;SDS011;3267;48.794;9.928;2023-04-29T08:01:48;2.05;;;1.95;;
6467;SDS011;3267;48.794;9.928;2023-04-29T08:07:03;2.95;;;2.75;;
6467;SDS011;3267;48.794;9.928;2023-04-29T08:09:28;2.33;;;2.17;;
6467;SDS011;3267;48.794;9.928;2023-04-29T08:11:54;3.83;;;2.22;;
6467;SDS011;3267;48.794;9.928;2023-04-29T08:14:20;2.10;;;2.00;;
6467;SDS011;3267;48.794;9.928;2023-04-29T08:16:45;4.88;;;2.00;;
6467;SDS011;3267;48.794;9.928;2023-04-29T08:19:11;1.98;;;1.88;;
6467;SDS011;3267;48.794;9.928;2023-04-29T08:21:37;2.30;;;2.10;;
6467;SDS011;3267;48.794;9.928;2023-04-29T08:24:03;1.67;;;1.58;;
6467;SDS011;3267;48.794;9.928;2023-04-29T08:26:29;1.83;;;1.70;;
6467;SDS011;3267;48.794;9.928;2023-04-29T08:28:55;3.05;;;1.67;;
6467;SDS011;3267;48.794;9.928;2023-04-29T08:31:21;1.95;;;1.60;;
6467;SDS011;3267;48.794;9.928;2023-04-29T08:33:47;2.00;;;1.90;;
6467;SDS011;3267;48.794;9.928;2023-04-29T08:36:13;1.75;;;1.65;;
6467;SDS011;3267;48.794;9.928;2023-04-29T08:38:39;3.58;;;1.63;;
6467;SDS011;3267;48.794;9.928;2023-04-29T08:41:08;1.65;;;1.55;;
6467;SDS011;3267;48.794;9.928;2023-04-29T08:43:34;4.90;;;1.58;;
6467;SDS011;3267;48.794;9.928;2023-04-29T08:46:04;2.33;;;1.80;;
6467;SDS011;3267;48.794;9.928;2023-04-29T08:48:31;1.63;;;1.52;;
6467;SDS011;3267;48.794;9.928;2023-04-29T08:50:58;2.22;;;1.70;;
6467;SDS011;3267;48.794;9.928;2023-04-29T08:53:25;1.65;;;1.55;;
6467;SDS011;3267;48.794;9.928;2023-04-29T08:55:51;1.63;;;1.50;;
6467;SDS011;3267;48.794;9.928;2023-04-29T08:58:19;5.13;;;1.50;;
6467;SDS011;3267;48.794;9.928;2023-04-29T09:00:46;1.50;;;1.40;;
6467;SDS011;3267;48.794;9.928;2023-04-29T09:03:16;1.50;;;1.40;;
6467;SDS011;3267;48.794;9.928;2023-04-29T09:05:47;1.33;;;1.23;;
6467;SDS011;3267;48.794;9.928;2023-04-29T09:08:14;1.92;;;1.83;;
6467;SDS011;3267;48.794;9.928;2023-04-29T09:10:41;1.38;;;1.30;;
6467;SDS011;3267;48.794;9.928;2023-04-29T09:13:07;1.52;;;1.40;;
6467;SDS011;3267;48.794;9.928;2023-04-29T09:15:36;6.63;;;1.50;;
6467;SDS011;3267;48.794;9.928;2023-04-29T09:18:04;1.42;;;1.42;;
6467;SDS011;3267;48.794;9.928;2023-04-29T09:20:30;1.50;;;1.40;;
6467;SDS011;3267;48.794;9.928;2023-04-29T09:22:59;1.65;;;1.40;;
6467;SDS011;3267;48.794;9.928;2023-04-29T09:25:26;1.13;;;1.02;;
6467;SDS011;3267;48.794;9.928;2023-04-29T09:27:54;1.10;;;1.10;;
6467;SDS011;3267;48.794;9.928;2023-04-29T09:30:21;1.20;;;1.10;;
6467;SDS011;3267;48.794;9.928;2023-04-29T09:33:04;7.18;;;4.38;;
6467;SDS011;3267;48.794;9.928;2023-04-29T09:35:33;2.03;;;1.42;;
6467;SDS011;3267;48.794;9.928;2023-04-29T09:38:18;3.63;;;1.08;;
6467;SDS011;3267;48.794;9.928;2023-04-29T09:40:45;2.08;;;1.08;;
6467;SDS011;3267;48.794;9.928;2023-04-29T09:43:14;1.00;;;1.00;;
6467;SDS011;3267;48.794;9.928;2023-04-29T09:45:46;1.60;;;1.05;;
6467;SDS011;3267;48.794;9.928;2023-04-29T09:48:12;1.40;;;1.00;;
6467;SDS011;3267;48.794;9.928;2023-04-29T09:50:40;1.23;;;1.23;;
6467;SDS011;3267;48.794;9.928;2023-04-29T09:53:08;1.08;;;1.05;;
6467;SDS011;3267;48.794;9.928;2023-04-29T09:56:08;2.20;;;1.13;;
6467;SDS011;3267;48.794;9.928;2023-04-29T09:58:30;2.50;;;1.27;;
6467;SDS011;3267;48.794;9.928;2023-04-29T10:01:01;1.00;;;1.00;;
6467;SDS011;3267;48.794;9.928;2023-04-29T10:03:37;1.30;;;1.20;;
6467;SDS011;3267;48.794;9.928;2023-04-29T10:06:03;3.35;;;1.20;;
6467;SDS011;3267;48.794;9.928;2023-04-29T10:08:31;1.10;;;1.10;;
6467;SDS011;3267;48.794;9.928;2023-04-29T10:11:01;1.02;;;1.02;;
6467;SDS011;3267;48.794;9.928;2023-04-29T10:13:28;1.75;;;1.65;;
6467;SDS011;3267;48.794;9.928;2023-04-29T10:16:12;1.38;;;1.27;;
6467;SDS011;3267;48.794;9.928;2023-04-29T10:18:53;1.13;;;1.02;;
6467;SDS011;3267;48.794;9.928;2023-04-29T10:21:29;2.20;;;1.35;;
6467;SDS011;3267;48.794;9.928;2023-04-29T10:23:56;2.30;;;1.13;;
6467;SDS011;3267;48.794;9.928;2023-04-29T10:26:26;2.13;;;1.13;;
6467;SDS011;3267;48.794;9.928;2023-04-29T10:28:56;0.90;;;0.90;;
6467;SDS011;3267;48.794;9.928;2023-04-29T10:31:28;1.38;;;1.27;;
6467;SDS011;3267;48.794;9.928;2023-04-29T10:33:55;1.77;;;1.67;;
6467;SDS011;3267;48.794;9.928;2023-04-29T10:36:22;3.20;;;1.38;;
6467;SDS011;3267;48.794;9.928;2023-04-29T10:38:50;1.05;;;0.90;;
6467;SDS011;3267;48.794;9.928;2023-04-29T10:41:20;1.23;;;1.10;;
6467;SDS011;3267;48.794;9.928;2023-04-29T10:43:53;1.95;;;1.20;;
6467;SDS011;3267;48.794;9.928;2023-04-29T10:46:20;1.95;;;1.10;;
6467;SDS011;3267;48.794;9.928;2023-04-29T10:48:49;1.92;;;1.30;;
6467;SDS011;3267;48.794;9.928;2023-04-29T10:51:27;1.33;;;1.33;;
6467;SDS011;3267;48.794;9.928;2023-04-29T10:54:13;1.30;;;1.20;;
6467;SDS011;3267;48.794;9.928;2023-04-29T10:56:48;1.15;;;1.10;;
6467;SDS011;3267;48.794;9.928;2023-04-29T10:59:19;1.67;;;1.10;;
6467;SDS011;3267;48.794;9.928;2023-04-29T11:01:47;1.20;;;1.10;;
6467;SDS011;3267;48.794;9.928;2023-04-29T11:04:20;1.63;;;1.20;;
6467;SDS011;3267;48.794;9.928;2023-04-29T11:06:55;1.85;;;1.40;;
6467;SDS011;3267;48.794;9.928;2023-04-29T11:12:06;1.20;;;1.20;;
6467;SDS011;3267;48.794;9.928;2023-04-29T11:17:08;1.88;;;1.40;;
6467;SDS011;3267;48.794;9.928;2023-04-29T11:19:40;1.52;;;1.23;;
6467;SDS011;3267;48.794;9.928;2023-04-29T11:22:26;1.60;;;1.50;;
6467;SDS011;3267;48.794;9.928;2023-04-29T11:25:05;1.60;;;1.42;;
6467;SDS011;3267;48.794;9.928;2023-04-29T11:27:32;1.77;;;1.15;;
6467;SDS011;3267;48.794;9.928;2023-04-29T11:29:59;1.20;;;1.20;;
6467;SDS011;3267;48.794;9.928;2023-04-29T11:32:32;1.40;;;1.30;;
6467;SDS011;3267;48.794;9.928;2023-04-29T11:35:06;1.10;;;1.10;;
6467;SDS011;3267;48.794;9.928;2023-04-29T11:37:33;1.65;;;1.55;;
6467;SDS011;3267;48.794;9.928;2023-04-29T11:39:59;1.48;;;1.40;;
6467;SDS011;3267;48.794;9.928;2023-04-29T11:42:25;1.20;;;1.10;;
6467;SDS011;3267;48.794;9.928;2023-04-29T11:44:55;2.55;;;1.52;;
6467;SDS011;3267;48.794;9.928;2023-04-29T11:47:29;1.45;;;1.35;;
6467;SDS011;3267;48.794;9.928;2023-04-29T11:50:02;1.30;;;1.30;;
6467;SDS011;3267;48.794;9.928;2023-04-29T11:52:28;1.75;;;1.30;;
6467;SDS011;3267;48.794;9.928;2023-04-29T11:54:56;1.70;;;1.60;;
6467;SDS011;3267;48.794;9.928;2023-04-29T11:57:23;1.58;;;1.30;;
6467;SDS011;3267;48.794;9.928;2023-04-29T11:59:48;1.30;;;1.20;;
6467;SDS011;3267;48.794;9.928;2023-04-29T12:02:14;1.42;;;1.33;;
6467;SDS011;3267;48.794;9.928;2023-04-29T12:04:46;2.35;;;1.40;;
6467;SDS011;3267;48.794;9.928;2023-04-29T12:07:15;1.23;;;1.13;;
6467;SDS011;3267;48.794;9.928;2023-04-29T12:09:44;1.88;;;1.23;;
6467;SDS011;3267;48.794;9.928;2023-04-29T12:12:14;0.80;;;0.80;;
6467;SDS011;3267;48.794;9.928;2023-04-29T12:14:40;1.52;;;1.02;;
6467;SDS011;3267;48.794;9.928;2023-04-29T12:17:06;1.05;;;1.02;;
6467;SDS011;3267;48.794;9.928;2023-04-29T12:19:33;1.50;;;1.10;;
6467;SDS011;3267;48.794;9.928;2023-04-29T12:22:03;1.00;;;1.00;;
6467;SDS011;3267;48.794;9.928;2023-04-29T12:24:35;4.22;;;0.95;;
6467;SDS011;3267;48.794;9.928;2023-04-29T12:27:02;1.17;;;1.08;;
6467;SDS011;3267;48.794;9.928;2023-04-29T12:29:30;0.90;;;0.90;;
6467;SDS011;3267;48.794;9.928;2023-04-29T12:31:57;1.10;;;1.00;;
6467;SDS011;3267;48.794;9.928;2023-04-29T12:34:29;1.17;;;1.08;;
6467;SDS011;3267;48.794;9.928;2023-04-29T12:36:59;1.02;;;1.02;;
6467;SDS011;3267;48.794;9.928;2023-04-29T12:39:26;0.70;;;0.70;;
6467;SDS011;3267;48.794;9.928;2023-04-29T12:41:58;0.80;;;0.80;;
6467;SDS011;3267;48.794;9.928;2023-04-29T12:44:33;0.70;;;0.70;;
6467;SDS011;3267;48.794;9.928;2023-04-29T12:47:06;1.20;;;1.08;;
6467;SDS011;3267;48.794;9.928;2023-04-29T12:49:33;0.70;;;0.70;;
6467;SDS011;3267;48.794;9.928;2023-04-29T12:52:00;0.85;;;0.85;;
6467;SDS011;3267;48.794;9.928;2023-04-29T12:54:26;0.80;;;0.80;;
6467;SDS011;3267;48.794;9.928;2023-04-29T12:56:52;0.80;;;0.80;;
6467;SDS011;3267;48.794;9.928;2023-04-29T12:59:18;1.85;;;0.70;;
6467;SDS011;3267;48.794;9.928;2023-04-29T13:01:43;2.47;;;0.90;;
6467;SDS011;3267;48.794;9.928;2023-04-29T13:04:09;1.00;;;1.00;;
6467;SDS011;3267;48.794;9.928;2023-04-29T13:06:37;1.55;;;0.90;;
6467;SDS011;3267;48.794;9.928;2023-04-29T13:09:06;5.45;;;1.10;;
6467;SDS011;3267;48.794;9.928;2023-04-29T13:11:36;1.00;;;1.00;;
6467;SDS011;3267;48.794;9.928;2023-04-29T13:14:02;2.75;;;1.08;;
6467;SDS011;3267;48.794;9.928;2023-04-29T13:16:31;1.00;;;1.00;;
6467;SDS011;3267;48.794;9.928;2023-04-29T13:18:57;0.95;;;0.95;;
6467;SDS011;3267;48.794;9.928;2023-04-29T13:21:23;4.50;;;0.98;;
6467;SDS011;3267;48.794;9.928;2023-04-29T13:23:49;0.90;;;0.85;;
6467;SDS011;3267;48.794;9.928;2023-04-29T13:26:16;0.80;;;0.80;;
6467;SDS011;3267;48.794;9.928;2023-04-29T13:28:42;0.65;;;0.65;;
6467;SDS011;3267;48.794;9.928;2023-04-29T13:31:08;1.40;;;0.80;;
6467;SDS011;3267;48.794;9.928;2023-04-29T13:33:33;0.88;;;0.88;;
6467;SDS011;3267;48.794;9.928;2023-04-29T13:35:59;0.90;;;0.90;;
6467;SDS011;3267;48.794;9.928;2023-04-29T13:38:25;2.25;;;0.70;;
6467;SDS011;3267;48.794;9.928;2023-04-29T13:40:50;1.00;;;1.00;;
6467;SDS011;3267;48.794;9.928;2023-04-29T13:43:16;1.17;;;0.95;;
6467;SDS011;3267;48.794;9.928;2023-04-29T13:45:41;1.20;;;1.10;;
6467;SDS011;3267;48.794;9.928;2023-04-29T13:48:07;2.13;;;1.00;;
6467;SDS011;3267;48.794;9.928;2023-04-29T13:50:32;1.00;;;1.00;;
6467;SDS011;3267;48.794;9.928;2023-04-29T13:52:58;1.00;;;1.00;;
6467;SDS011;3267;48.794;9.928;2023-04-29T13:55:24;1.02;;;1.02;;
6467;SDS011;3267;48.794;9.928;2023-04-29T13:57:49;1.33;;;1.20;;
6467;SDS011;3267;48.794;9.928;2023-04-29T14:00:16;1.25;;;1.25;;
6467;SDS011;3267;48.794;9.928;2023-04-29T14:02:42;2.15;;;1.20;;
6467;SDS011;3267;48.794;9.928;2023-04-29T14:05:08;1.77;;;1.35;;
6467;SDS011;3267;48.794;9.928;2023-04-29T14:07:34;1.77;;;1.50;;
6467;SDS011;3267;48.794;9.928;2023-04-29T14:10:00;2.70;;;1.45;;
6467;SDS011;3267;48.794;9.928;2023-04-29T14:12:25;1.42;;;1.40;;
6467;SDS011;3267;48.794;9.928;2023-04-29T14:14:51;2.20;;;1.85;;
6467;SDS011;3267;48.794;9.928;2023-04-29T14:17:17;1.90;;;1.80;;
6467;SDS011;3267;48.794;9.928;2023-04-29T14:19:43;1.98;;;1.73;;
6467;SDS011;3267;48.794;9.928;2023-04-29T14:22:08;2.25;;;2.03;;
6467;SDS011;3267;48.794;9.928;2023-04-29T14:24:34;1.90;;;1.80;;
6467;SDS011;3267;48.794;9.928;2023-04-29T14:27:00;2.72;;;2.10;;
6467;SDS011;3267;48.794;9.928;2023-04-29T14:29:26;3.40;;;2.00;;
6467;SDS011;3267;48.794;9.928;2023-04-29T14:31:52;3.25;;;2.95;;
6467;SDS011;3267;48.794;9.928;2023-04-29T14:34:17;2.33;;;2.20;;
6467;SDS011;3267;48.794;9.928;2023-04-29T14:36:44;2.60;;;2.40;;
6467;SDS011;3267;48.794;9.928;2023-04-29T14:39:10;7.80;;;2.60;;
6467;SDS011;3267;48.794;9.928;2023-04-29T14:41:37;2.45;;;2.35;;
6467;SDS011;3267;48.794;9.928;2023-04-29T14:44:03;4.70;;;2.08;;
6467;SDS011;3267;48.794;9.928;2023-04-29T14:46:32;2.38;;;2.17;;
6467;SDS011;3267;48.794;9.928;2023-04-29T14:48:58;2.60;;;2.40;;
6467;SDS011;3267;48.794;9.928;2023-04-29T14:51:23;3.15;;;2.63;;
6467;SDS011;3267;48.794;9.928;2023-04-29T14:53:49;3.38;;;2.65;;
6467;SDS011;3267;48.794;9.928;2023-04-29T14:56:18;3.33;;;2.78;;
6467;SDS011;3267;48.794;9.928;2023-04-29T14:58:44;3.25;;;3.05;;
6467;SDS011;3267;48.794;9.928;2023-04-29T15:01:09;2.65;;;2.40;;
6467;SDS011;3267;48.794;9.928;2023-04-29T15:03:35;2.63;;;2.40;;
6467;SDS011;3267;48.794;9.928;2023-04-29T15:06:01;3.40;;;3.10;;
6467;SDS011;3267;48.794;9.928;2023-04-29T15:08:29;3.80;;;2.70;;
6467;SDS011;3267;48.794;9.928;2023-04-29T15:10:55;2.72;;;2.53;;
6467;SDS011;3267;48.794;9.928;2023-04-29T15:13:23;2.90;;;2.70;;
6467;SDS011;3267;48.794;9.928;2023-04-29T15:15:49;3.42;;;2.22;;
6467;SDS011;3267;48.794;9.928;2023-04-29T15:18:16;2.90;;;2.70;;
6467;SDS011;3267;48.794;9.928;2023-04-29T15:20:41;3.33;;;2.42;;
6467;SDS011;3267;48.794;9.928;2023-04-29T15:23:07;2.90;;;2.70;;
6467;SDS011;3267;48.794;9.928;2023-04-29T15:25:32;2.25;;;2.13;;
6467;SDS011;3267;48.794;9.928;2023-04-29T15:27:58;2.60;;;2.50;;
6467;SDS011;3267;48.794;9.928;2023-04-29T15:30:25;3.75;;;2.50;;
6467;SDS011;3267;48.794;9.928;2023-04-29T15:32:51;3.25;;;2.30;;
6467;SDS011;3267;48.794;9.928;2023-04-29T15:35:18;2.65;;;2.45;;
6467;SDS011;3267;48.794;9.928;2023-04-29T15:37:43;3.15;;;2.30;;
6467;SDS011;3267;48.794;9.928;2023-04-29T15:40:09;2.55;;;2.40;;
6467;SDS011;3267;48.794;9.928;2023-04-29T15:42:35;2.50;;;2.30;;
6467;SDS011;3267;48.794;9.928;2023-04-29T15:45:01;2.67;;;2.30;;
6467;SDS011;3267;48.794;9.928;2023-04-29T15:47:26;3.85;;;2.22;;
6467;SDS011;3267;48.794;9.928;2023-04-29T15:49:52;3.65;;;2.20;;
6467;SDS011;3267;48.794;9.928;2023-04-29T15:52:20;2.70;;;2.40;;
6467;SDS011;3267;48.794;9.928;2023-04-29T15:54:46;3.55;;;2.70;;
6467;SDS011;3267;48.794;9.928;2023-04-29T15:57:11;2.42;;;2.22;;
6467;SDS011;3267;48.794;9.928;2023-04-29T15:59:37;4.55;;;2.83;;
6467;SDS011;3267;48.794;9.928;2023-04-29T16:02:03;4.30;;;2.65;;
6467;SDS011;3267;48.794;9.928;2023-04-29T16:04:34;2.63;;;2.42;;
6467;SDS011;3267;48.794;9.928;2023-04-29T16:07:00;2.60;;;2.40;;
6467;SDS011;3267;48.794;9.928;2023-04-29T16:09:29;3.70;;;2.90;;
6467;SDS011;3267;48.794;9.928;2023-04-29T16:11:56;6.13;;;3.63;;
6467;SDS011;3267;48.794;9.928;2023-04-29T16:14:22;5.75;;;2.80;;
6467;SDS011;3267;48.794;9.928;2023-04-29T16:16:48;3.28;;;2.97;;
6467;SDS011;3267;48.794;9.928;2023-04-29T16:19:14;4.10;;;3.38;;
6467;SDS011;3267;48.794;9.928;2023-04-29T16:21:40;3.20;;;2.90;;
6467;SDS011;3267;48.794;9.928;2023-04-29T16:24:09;3.47;;;2.95;;
6467;SDS011;3267;48.794;9.928;2023-04-29T16:26:35;3.53;;;2.92;;
6467;SDS011;3267;48.794;9.928;2023-04-29T16:29:02;3.17;;;2.60;;
6467;SDS011;3267;48.794;9.928;2023-04-29T16:31:28;3.25;;;2.92;;
6467;SDS011;3267;48.794;9.928;2023-04-29T16:33:54;5.45;;;3.30;;
6467;SDS011;3267;48.794;9.928;2023-04-29T16:36:21;4.70;;;2.83;;
6467;SDS011;3267;48.794;9.928;2023-04-29T16:38:47;3.85;;;3.10;;
6467;SDS011;3267;48.794;9.928;2023-04-29T16:41:13;4.13;;;3.60;;
6467;SDS011;3267;48.794;9.928;2023-04-29T16:43:38;3.83;;;3.17;;
6467;SDS011;3267;48.794;9.928;2023-04-29T16:46:04;3.35;;;3.05;;
6467;SDS011;3267;48.794;9.928;2023-04-29T16:48:30;7.95;;;4.43;;
6467;SDS011;3267;48.794;9.928;2023-04-29T16:50:56;3.70;;;3.40;;
6467;SDS011;3267;48.794;9.928;2023-04-29T16:53:22;5.13;;;3.40;;
6467;SDS011;3267;48.794;9.928;2023-04-29T16:55:48;3.45;;;3.15;;
6467;SDS011;3267;48.794;9.928;2023-04-29T16:58:14;3.53;;;3.22;;
6467;SDS011;3267;48.794;9.928;2023-04-29T17:00:41;3.10;;;2.80;;
6467;SDS011;3267;48.794;9.928;2023-04-29T17:03:07;4.55;;;3.33;;
6467;SDS011;3267;48.794;9.928;2023-04-29T17:05:33;3.78;;;3.35;;
6467;SDS011;3267;48.794;9.928;2023-04-29T17:07:59;3.40;;;3.10;;
6467;SDS011;3267;48.794;9.928;2023-04-29T17:10:27;3.78;;;3.35;;
6467;SDS011;3267;48.794;9.928;2023-04-29T17:12:53;3.20;;;2.90;;
6467;SDS011;3267;48.794;9.928;2023-04-29T17:15:19;3.28;;;2.97;;
6467;SDS011;3267;48.794;9.928;2023-04-29T17:17:44;5.40;;;2.67;;
6467;SDS011;3267;48.794;9.928;2023-04-29T17:20:11;3.03;;;2.83;;
6467;SDS011;3267;48.794;9.928;2023-04-29T17:22:37;3.30;;;3.00;;
6467;SDS011;3267;48.794;9.928;2023-04-29T17:25:02;3.85;;;3.10;;
6467;SDS011;3267;48.794;9.928;2023-04-29T17:27:28;3.58;;;3.28;;
6467;SDS011;3267;48.794;9.928;2023-04-29T17:29:54;3.72;;;3.38;;
6467;SDS011;3267;48.794;9.928;2023-04-29T17:32:20;3.40;;;3.13;;
6467;SDS011;3267;48.794;9.928;2023-04-29T17:34:52;6.72;;;3.22;;
6467;SDS011;3267;48.794;9.928;2023-04-29T17:37:21;3.55;;;2.97;;
6467;SDS011;3267;48.794;9.928;2023-04-29T17:39:50;3.20;;;2.85;;
6467;SDS011;3267;48.794;9.928;2023-04-29T17:42:18;3.35;;;3.03;;
6467;SDS011;3267;48.794;9.928;2023-04-29T17:44:47;3.13;;;2.83;;
6467;SDS011;3267;48.794;9.928;2023-04-29T17:47:13;3.42;;;3.13;;
6467;SDS011;3267;48.794;9.928;2023-04-29T17:49:41;3.03;;;2.83;;
6467;SDS011;3267;48.794;9.928;2023-04-29T17:52:08;3.13;;;2.90;;
6467;SDS011;3267;48.794;9.928;2023-04-29T17:54:37;3.10;;;2.90;;
6467;SDS011;3267;48.794;9.928;2023-04-29T17:57:03;3.38;;;3.08;;
6467;SDS011;3267;48.794;9.928;2023-04-29T17:59:29;3.40;;;3.10;;
6467;SDS011;3267;48.794;9.928;2023-04-29T18:01:55;3.30;;;2.67;;
6467;SDS011;3267;48.794;9.928;2023-04-29T18:04:20;3.45;;;3.10;;
6467;SDS011;3267;48.794;9.928;2023-04-29T18:06:46;4.40;;;3.40;;
6467;SDS011;3267;48.794;9.928;2023-04-29T18:09:12;22.35;;;10.88;;
6467;SDS011;3267;48.794;9.928;2023-04-29T18:11:38;17.88;;;10.10;;
6467;SDS011;3267;48.794;9.928;2023-04-29T18:14:04;6.90;;;5.28;;
6467;SDS011;3267;48.794;9.928;2023-04-29T18:16:30;5.22;;;4.47;;
6467;SDS011;3267;48.794;9.928;2023-04-29T18:18:56;3.10;;;2.80;;
6467;SDS011;3267;48.794;9.928;2023-04-29T18:21:25;3.40;;;3.10;;
6467;SDS011;3267;48.794;9.928;2023-04-29T18:23:52;3.72;;;3.17;;
6467;SDS011;3267;48.794;9.928;2023-04-29T18:26:18;3.20;;;3.00;;
6467;SDS011;3267;48.794;9.928;2023-04-29T18:28:44;3.72;;;2.67;;
6467;SDS011;3267;48.794;9.928;2023-04-29T18:31:11;5.97;;;3.20;;
6467;SDS011;3267;48.794;9.928;2023-04-29T18:33:37;3.22;;;2.92;;
6467;SDS011;3267;48.794;9.928;2023-04-29T18:36:03;3.53;;;3.22;;
6467;SDS011;3267;48.794;9.928;2023-04-29T18:38:29;3.90;;;2.80;;
6467;SDS011;3267;48.794;9.928;2023-04-29T18:40:54;3.15;;;2.95;;
6467;SDS011;3267;48.794;9.928;2023-04-29T18:43:20;3.22;;;2.92;;
6467;SDS011;3267;48.794;9.928;2023-04-29T18:45:52;4.47;;;2.80;;
6467;SDS011;3267;48.794;9.928;2023-04-29T18:48:18;3.17;;;2.53;;
6467;SDS011;3267;48.794;9.928;2023-04-29T18:50:44;3.58;;;2.88;;
6467;SDS011;3267;48.794;9.928;2023-04-29T18:53:10;4.38;;;3.25;;
6467;SDS011;3267;48.794;9.928;2023-04-29T18:55:36;2.95;;;2.75;;
6467;SDS011;3267;48.794;9.928;2023-04-29T18:58:01;9.30;;;6.85;;
6467;SDS011;3267;48.794;9.928;2023-04-29T19:00:27;3.50;;;3.22;;
6467;SDS011;3267;48.794;9.928;2023-04-29T19:02:53;7.55;;;5.18;;
6467;SDS011;3267;48.794;9.928;2023-04-29T19:05:20;6.55;;;3.72;;
6467;SDS011;3267;48.794;9.928;2023-04-29T19:07:47;4.68;;;3.75;;
6467;SDS011;3267;48.794;9.928;2023-04-29T19:10:13;3.40;;;3.08;;
6467;SDS011;3267;48.794;9.928;2023-04-29T19:12:38;3.30;;;3.00;;
6467;SDS011;3267;48.794;9.928;2023-04-29T19:15:04;3.88;;;3.10;;
6467;SDS011;3267;48.794;9.928;2023-04-29T19:17:32;4.40;;;4.00;;
6467;SDS011;3267;48.794;9.928;2023-04-29T19:19:58;5.25;;;4.25;;
6467;SDS011;3267;48.794;9.928;2023-04-29T19:22:27;7.05;;;5.00;;
6467;SDS011;3267;48.794;9.928;2023-04-29T19:24:53;3.67;;;3.38;;
6467;SDS011;3267;48.794;9.928;2023-04-29T19:27:19;3.88;;;3.58;;